sensor_id;sensor_type;location;lat;lon;timestamp;pressure;altitude;pressure_sealevel;temperature;humidity
16331;BME280;8275;48.206;16.340;2023-05-31T00:00:03;99605.06;;;22.04;27.40
16331;BME280;8275;48.206;16.340;2023-05-31T00:02:32;99610.47;;;22.01;27.46
16331;BME280;8275;48.206;16.340;2023-05-31T00:05:01;99608.66;;;21.96;27.72
16331;BME280;8275;48.206;16.340;2023-05-31T00:07:29;99611.25;;;21.93;27.89
16331;BME280;8275;48.206;16.340;2023-05-31T00:09:59;99608.94;;;21.86;27.72
16331;BME280;8275;48.206;16.340;2023-05-31T00:12:28;99605.66;;;21.84;28.10
16331;BME280;8275;48.206;16.340;2023-05-31T00:14:56;99607.91;;;21.82;27.74
16331;BME280;8275;48.206;16.340;2023-05-31T00:17:27;99610.50;;;21.79;28.15
16331;BME280;8275;48.206;16.340;2023-05-31T00:20:16;99609.50;;;21.75;28.03
16331;BME280;8275;48.206;16.340;2023-05-31T00:22:45;99612.09;;;21.71;28.20
16331;BME280;8275;48.206;16.340;2023-05-31T00:25:14;99614.38;;;21.69;27.77
16331;BME280;8275;48.206;16.340;2023-05-31T00:27:43;99617.84;;;21.66;28.27
16331;BME280;8275;48.206;16.340;2023-05-31T00:30:13;99612.91;;;21.63;28.32
16331;BME280;8275;48.206;16.340;2023-05-31T00:32:41;99612.06;;;21.62;27.98
16331;BME280;8275;48.206;16.340;2023-05-31T00:35:10;99612.41;;;21.61;28.22
16331;BME280;8275;48.206;16.340;2023-05-31T00:37:39;99613.03;;;21.58;27.94
16331;BME280;8275;48.206;16.340;2023-05-31T00:40:08;99612.53;;;21.56;28.10
16331;BME280;8275;48.206;16.340;2023-05-31T00:42:38;99616.44;;;21.55;28.48
16331;BME280;8275;48.206;16.340;2023-05-31T00:45:07;99610.38;;;21.53;28.41
16331;BME280;8275;48.206;16.340;2023-05-31T00:47:36;99615.44;;;21.51;28.15
16331;BME280;8275;48.206;16.340;2023-05-31T00:50:07;99619.41;;;21.50;28.48
16331;BME280;8275;48.206;16.340;2023-05-31T00:52:36;99612.16;;;21.49;28.33
16331;BME280;8275;48.206;16.340;2023-05-31T00:55:06;99609.19;;;21.45;28.63
16331;BME280;8275;48.206;16.340;2023-05-31T00:57:37;99611.78;;;21.42;28.59
16331;BME280;8275;48.206;16.340;2023-05-31T01:00:08;99617.19;;;21.38;28.67
16331;BME280;8275;48.206;16.340;2023-05-31T01:02:37;99620.94;;;21.34;28.88
16331;BME280;8275;48.206;16.340;2023-05-31T01:05:10;99613.53;;;21.29;28.86
16331;BME280;8275;48.206;16.340;2023-05-31T01:07:38;99605.31;;;21.24;28.55
16331;BME280;8275;48.206;16.340;2023-05-31T01:10:07;99612.66;;;21.20;29.19
16331;BME280;8275;48.206;16.340;2023-05-31T01:12:48;99609.16;;;21.15;29.26
16331;BME280;8275;48.206;16.340;2023-05-31T01:15:22;99599.81;;;21.11;28.77
16331;BME280;8275;48.206;16.340;2023-05-31T01:17:56;99604.34;;;21.07;29.30
16331;BME280;8275;48.206;16.340;2023-05-31T01:20:31;99604.13;;;21.03;29.05
16331;BME280;8275;48.206;16.340;2023-05-31T01:23:21;99603.44;;;20.97;29.33
16331;BME280;8275;48.206;16.340;2023-05-31T01:26:35;99608.63;;;20.90;29.36
16331;BME280;8275;48.206;16.340;2023-05-31T01:29:07;99607.00;;;20.89;29.37
16331;BME280;8275;48.206;16.340;2023-05-31T01:31:37;99608.44;;;20.87;29.48
16331;BME280;8275;48.206;16.340;2023-05-31T01:34:08;99602.69;;;20.83;29.46
16331;BME280;8275;48.206;16.340;2023-05-31T01:36:37;99608.06;;;20.80;29.78
16331;BME280;8275;48.206;16.340;2023-05-31T01:39:06;99603.09;;;20.77;29.59
16331;BME280;8275;48.206;16.340;2023-05-31T01:41:40;99602.94;;;20.73;29.91
16331;BME280;8275;48.206;16.340;2023-05-31T01:44:11;99597.16;;;20.70;30.01
16331;BME280;8275;48.206;16.340;2023-05-31T01:46:42;99596.63;;;20.68;29.96
16331;BME280;8275;48.206;16.340;2023-05-31T01:49:12;99605.66;;;20.65;30.05
16331;BME280;8275;48.206;16.340;2023-05-31T01:51:41;99603.47;;;20.62;30.21
16331;BME280;8275;48.206;16.340;2023-05-31T01:54:11;99606.88;;;20.59;29.97
16331;BME280;8275;48.206;16.340;2023-05-31T01:56:42;99608.66;;;20.55;30.04
16331;BME280;8275;48.206;16.340;2023-05-31T01:59:12;99607.31;;;20.52;30.26
16331;BME280;8275;48.206;16.340;2023-05-31T02:01:41;99608.75;;;20.50;30.51
16331;BME280;8275;48.206;16.340;2023-05-31T02:04:10;99607.44;;;20.47;30.41
16331;BME280;8275;48.206;16.340;2023-05-31T02:06:39;99608.06;;;20.44;30.55
16331;BME280;8275;48.206;16.340;2023-05-31T02:09:07;99615.09;;;20.42;30.57
16331;BME280;8275;48.206;16.340;2023-05-31T02:11:36;99618.47;;;20.39;30.64
16331;BME280;8275;48.206;16.340;2023-05-31T02:14:06;99622.72;;;20.36;30.52
16331;BME280;8275;48.206;16.340;2023-05-31T02:16:34;99615.81;;;20.34;30.75
16331;BME280;8275;48.206;16.340;2023-05-31T02:19:03;99630.03;;;20.32;30.70
16331;BME280;8275;48.206;16.340;2023-05-31T02:21:33;99630.66;;;20.29;30.63
16331;BME280;8275;48.206;16.340;2023-05-31T02:24:02;99620.13;;;20.26;30.96
16331;BME280;8275;48.206;16.340;2023-05-31T02:26:31;99622.41;;;20.24;31.12
16331;BME280;8275;48.206;16.340;2023-05-31T02:28:59;99628.28;;;20.22;31.07
16331;BME280;8275;48.206;16.340;2023-05-31T02:31:29;99624.16;;;20.20;31.14
16331;BME280;8275;48.206;16.340;2023-05-31T02:33:58;99625.28;;;20.19;31.07
16331;BME280;8275;48.206;16.340;2023-05-31T02:36:26;99627.25;;;20.18;31.16
16331;BME280;8275;48.206;16.340;2023-05-31T02:38:56;99626.22;;;20.14;31.27
16331;BME280;8275;48.206;16.340;2023-05-31T02:41:24;99626.53;;;20.13;31.23
16331;BME280;8275;48.206;16.340;2023-05-31T02:43:52;99624.06;;;20.11;31.27
16331;BME280;8275;48.206;16.340;2023-05-31T02:46:21;99635.19;;;20.11;31.26
16331;BME280;8275;48.206;16.340;2023-05-31T02:48:51;99633.00;;;20.08;31.31
16331;BME280;8275;48.206;16.340;2023-05-31T02:51:19;99631.38;;;20.07;31.33
16331;BME280;8275;48.206;16.340;2023-05-31T02:53:48;99632.81;;;20.05;31.32
16331;BME280;8275;48.206;16.340;2023-05-31T02:56:16;99633.13;;;20.03;31.32
16331;BME280;8275;48.206;16.340;2023-05-31T02:58:45;99638.16;;;20.01;31.25
16331;BME280;8275;48.206;16.340;2023-05-31T03:01:13;99642.91;;;20.01;31.53
16331;BME280;8275;48.206;16.340;2023-05-31T03:03:42;99641.25;;;20.00;31.37
16331;BME280;8275;48.206;16.340;2023-05-31T03:06:12;99637.16;;;19.97;31.17
16331;BME280;8275;48.206;16.340;2023-05-31T03:08:44;99645.47;;;19.97;31.29
16331;BME280;8275;48.206;16.340;2023-05-31T03:11:12;99648.03;;;19.94;31.29
16331;BME280;8275;48.206;16.340;2023-05-31T03:13:41;99643.94;;;19.91;31.30
16331;BME280;8275;48.206;16.340;2023-05-31T03:16:09;99648.97;;;19.89;31.39
16331;BME280;8275;48.206;16.340;2023-05-31T03:18:38;99653.22;;;19.87;31.39
16331;BME280;8275;48.206;16.340;2023-05-31T03:21:06;99645.16;;;19.85;31.48
16331;BME280;8275;48.206;16.340;2023-05-31T03:23:36;99661.34;;;19.83;31.32
16331;BME280;8275;48.206;16.340;2023-05-31T03:26:05;99665.25;;;19.82;31.38
16331;BME280;8275;48.206;16.340;2023-05-31T03:28:33;99665.56;;;19.81;31.41
16331;BME280;8275;48.206;16.340;2023-05-31T03:31:02;99670.28;;;19.80;31.57
16331;BME280;8275;48.206;16.340;2023-05-31T03:33:30;99667.50;;;19.80;31.58
16331;BME280;8275;48.206;16.340;2023-05-31T03:35:59;99672.53;;;19.78;31.60
16331;BME280;8275;48.206;16.340;2023-05-31T03:38:28;99672.88;;;19.77;31.54
16331;BME280;8275;48.206;16.340;2023-05-31T03:40:58;99669.25;;;19.76;31.57
16331;BME280;8275;48.206;16.340;2023-05-31T03:43:27;99683.97;;;19.77;31.78
16331;BME280;8275;48.206;16.340;2023-05-31T03:45:56;99673.97;;;19.76;31.69
16331;BME280;8275;48.206;16.340;2023-05-31T03:48:28;99670.91;;;19.77;31.86
16331;BME280;8275;48.206;16.340;2023-05-31T03:50:56;99669.75;;;19.78;31.64
16331;BME280;8275;48.206;16.340;2023-05-31T03:53:25;99667.81;;;19.79;32.15
16331;BME280;8275;48.206;16.340;2023-05-31T03:55:54;99668.66;;;19.79;32.02
16331;BME280;8275;48.206;16.340;2023-05-31T03:58:23;99675.03;;;19.80;32.03
16331;BME280;8275;48.206;16.340;2023-05-31T04:00:52;99682.75;;;19.83;32.08
16331;BME280;8275;48.206;16.340;2023-05-31T04:03:20;99687.69;;;19.86;31.99
16331;BME280;8275;48.206;16.340;2023-05-31T04:05:49;99680.69;;;19.88;32.09
16331;BME280;8275;48.206;16.340;2023-05-31T04:08:17;99684.00;;;19.90;32.09
16331;BME280;8275;48.206;16.340;2023-05-31T04:10:46;99685.84;;;19.95;32.07
16331;BME280;8275;48.206;16.340;2023-05-31T04:13:14;99688.03;;;19.98;32.19
16331;BME280;8275;48.206;16.340;2023-05-31T04:15:44;99680.41;;;20.03;32.13
16331;BME280;8275;48.206;16.340;2023-05-31T04:18:12;99684.75;;;20.09;31.84
16331;BME280;8275;48.206;16.340;2023-05-31T04:20:41;99679.88;;;20.15;31.87
16331;BME280;8275;48.206;16.340;2023-05-31T04:23:10;99679.50;;;20.21;31.93
16331;BME280;8275;48.206;16.340;2023-05-31T04:25:38;99683.53;;;20.29;31.63
16331;BME280;8275;48.206;16.340;2023-05-31T04:28:06;99675.56;;;20.36;31.88
16331;BME280;8275;48.206;16.340;2023-05-31T04:30:35;99676.00;;;20.43;31.53
16331;BME280;8275;48.206;16.340;2023-05-31T04:33:05;99681.97;;;20.50;31.69
16331;BME280;8275;48.206;16.340;2023-05-31T04:35:33;99682.16;;;20.54;31.68
16331;BME280;8275;48.206;16.340;2023-05-31T04:38:02;99680.09;;;20.59;31.48
16331;BME280;8275;48.206;16.340;2023-05-31T04:40:30;99687.50;;;20.64;31.59
16331;BME280;8275;48.206;16.340;2023-05-31T04:43:00;99687.91;;;20.71;31.65
16331;BME280;8275;48.206;16.340;2023-05-31T04:45:29;99686.63;;;20.77;31.66
16331;BME280;8275;48.206;16.340;2023-05-31T04:47:58;99676.72;;;20.84;31.67
16331;BME280;8275;48.206;16.340;2023-05-31T04:50:28;99692.72;;;20.92;31.47
16331;BME280;8275;48.206;16.340;2023-05-31T04:52:57;99680.81;;;21.00;31.40
16331;BME280;8275;48.206;16.340;2023-05-31T04:55:26;99682.06;;;21.08;31.39
16331;BME280;8275;48.206;16.340;2023-05-31T04:57:54;99695.22;;;21.16;31.19
16331;BME280;8275;48.206;16.340;2023-05-31T05:00:23;99695.59;;;21.23;31.36
16331;BME280;8275;48.206;16.340;2023-05-31T05:02:51;99694.84;;;21.31;31.04
16331;BME280;8275;48.206;16.340;2023-05-31T05:05:20;99698.03;;;21.38;31.12
16331;BME280;8275;48.206;16.340;2023-05-31T05:07:50;99701.50;;;21.44;30.97
16331;BME280;8275;48.206;16.340;2023-05-31T05:10:18;99698.44;;;21.54;30.61
16331;BME280;8275;48.206;16.340;2023-05-31T05:12:47;99696.13;;;21.78;30.50
16331;BME280;8275;48.206;16.340;2023-05-31T05:15:15;99692.97;;;21.93;30.42
16331;BME280;8275;48.206;16.340;2023-05-31T05:17:43;99698.41;;;21.98;29.98
16331;BME280;8275;48.206;16.340;2023-05-31T05:20:13;99693.34;;;22.00;30.15
16331;BME280;8275;48.206;16.340;2023-05-31T05:22:42;99692.00;;;21.98;30.35
16331;BME280;8275;48.206;16.340;2023-05-31T05:25:19;99699.06;;;21.95;30.42
16331;BME280;8275;48.206;16.340;2023-05-31T05:27:49;99701.84;;;21.95;30.46
16331;BME280;8275;48.206;16.340;2023-05-31T05:30:18;99699.88;;;21.96;30.35
16331;BME280;8275;48.206;16.340;2023-05-31T05:32:46;99703.66;;;22.00;30.42
16331;BME280;8275;48.206;16.340;2023-05-31T05:35:15;99707.78;;;22.02;30.04
16331;BME280;8275;48.206;16.340;2023-05-31T05:37:43;99706.81;;;22.07;29.96
16331;BME280;8275;48.206;16.340;2023-05-31T05:40:12;99715.56;;;22.14;30.31
16331;BME280;8275;48.206;16.340;2023-05-31T05:42:42;99715.28;;;22.24;30.12
16331;BME280;8275;48.206;16.340;2023-05-31T05:45:11;99721.06;;;22.36;30.24
16331;BME280;8275;48.206;16.340;2023-05-31T05:47:40;99719.44;;;22.44;30.12
16331;BME280;8275;48.206;16.340;2023-05-31T05:50:12;99723.09;;;22.53;29.98
16331;BME280;8275;48.206;16.340;2023-05-31T05:52:41;99734.00;;;22.63;29.68
16331;BME280;8275;48.206;16.340;2023-05-31T05:55:10;99730.38;;;22.71;29.73
16331;BME280;8275;48.206;16.340;2023-05-31T05:57:39;99725.63;;;22.80;29.60
16331;BME280;8275;48.206;16.340;2023-05-31T06:00:10;99736.19;;;22.91;29.36
16331;BME280;8275;48.206;16.340;2023-05-31T06:02:39;99738.03;;;23.04;29.22
16331;BME280;8275;48.206;16.340;2023-05-31T06:05:08;99728.47;;;23.14;29.17
16331;BME280;8275;48.206;16.340;2023-05-31T06:07:37;99735.56;;;23.29;28.93
16331;BME280;8275;48.206;16.340;2023-05-31T06:10:08;99730.16;;;23.41;28.73
16331;BME280;8275;48.206;16.340;2023-05-31T06:12:36;99731.97;;;23.54;28.78
16331;BME280;8275;48.206;16.340;2023-05-31T06:15:08;99733.59;;;23.63;28.79
16331;BME280;8275;48.206;16.340;2023-05-31T06:17:39;99736.38;;;23.72;28.53
16331;BME280;8275;48.206;16.340;2023-05-31T06:20:09;99738.34;;;23.80;28.48
16331;BME280;8275;48.206;16.340;2023-05-31T06:22:38;99738.97;;;23.94;28.53
16331;BME280;8275;48.206;16.340;2023-05-31T06:25:07;99736.63;;;24.05;28.33
16331;BME280;8275;48.206;16.340;2023-05-31T06:27:36;99735.81;;;24.13;28.23
16331;BME280;8275;48.206;16.340;2023-05-31T06:30:08;99740.91;;;24.19;28.18
16331;BME280;8275;48.206;16.340;2023-05-31T06:32:37;99732.66;;;24.23;27.98
16331;BME280;8275;48.206;16.340;2023-05-31T06:35:06;99733.28;;;24.28;27.95
16331;BME280;8275;48.206;16.340;2023-05-31T06:37:35;99731.59;;;24.36;27.92
16331;BME280;8275;48.206;16.340;2023-05-31T06:40:06;99736.00;;;24.46;27.86
16331;BME280;8275;48.206;16.340;2023-05-31T06:42:36;99726.56;;;24.59;27.70
16331;BME280;8275;48.206;16.340;2023-05-31T06:45:08;99727.47;;;24.71;27.63
16331;BME280;8275;48.206;16.340;2023-05-31T06:47:36;99726.41;;;24.84;27.42
16331;BME280;8275;48.206;16.340;2023-05-31T06:50:06;99728.47;;;24.96;27.64
16331;BME280;8275;48.206;16.340;2023-05-31T06:52:34;99727.75;;;25.07;27.32
16331;BME280;8275;48.206;16.340;2023-05-31T06:55:04;99716.25;;;25.21;27.08
16331;BME280;8275;48.206;16.340;2023-05-31T06:57:32;99719.75;;;25.39;26.90
16331;BME280;8275;48.206;16.340;2023-05-31T07:00:01;99715.50;;;25.53;26.80
16331;BME280;8275;48.206;16.340;2023-05-31T07:02:32;99712.44;;;25.67;26.97
16331;BME280;8275;48.206;16.340;2023-05-31T07:05:00;99713.97;;;25.76;26.72
16331;BME280;8275;48.206;16.340;2023-05-31T07:07:29;99707.44;;;25.85;26.32
16331;BME280;8275;48.206;16.340;2023-05-31T07:09:57;99707.56;;;25.88;26.38
16331;BME280;8275;48.206;16.340;2023-05-31T07:12:26;99707.34;;;25.93;26.66
16331;BME280;8275;48.206;16.340;2023-05-31T07:14:54;99704.78;;;26.00;26.58
16331;BME280;8275;48.206;16.340;2023-05-31T07:17:22;99703.66;;;26.13;26.35
16331;BME280;8275;48.206;16.340;2023-05-31T07:19:52;99709.44;;;26.29;26.28
16331;BME280;8275;48.206;16.340;2023-05-31T07:22:21;99708.50;;;26.49;26.07
16331;BME280;8275;48.206;16.340;2023-05-31T07:24:50;99705.44;;;26.66;26.42
16331;BME280;8275;48.206;16.340;2023-05-31T07:27:19;99701.72;;;26.86;26.04
16331;BME280;8275;48.206;16.340;2023-05-31T07:29:48;99712.69;;;27.03;25.60
16331;BME280;8275;48.206;16.340;2023-05-31T07:32:17;99711.59;;;27.20;25.83
16331;BME280;8275;48.206;16.340;2023-05-31T07:34:45;99709.69;;;27.36;25.42
16331;BME280;8275;48.206;16.340;2023-05-31T07:37:32;99707.78;;;27.52;25.17
16331;BME280;8275;48.206;16.340;2023-05-31T07:40:01;99706.91;;;27.64;24.94
16331;BME280;8275;48.206;16.340;2023-05-31T07:42:32;99707.69;;;27.76;25.23
16331;BME280;8275;48.206;16.340;2023-05-31T07:45:00;99699.06;;;27.85;25.03
16331;BME280;8275;48.206;16.340;2023-05-31T07:47:29;99707.50;;;27.85;24.54
16331;BME280;8275;48.206;16.340;2023-05-31T07:49:58;99698.59;;;27.83;24.30
16331;BME280;8275;48.206;16.340;2023-05-31T07:52:26;99697.50;;;27.88;24.26
16331;BME280;8275;48.206;16.340;2023-05-31T07:54:56;99696.50;;;27.96;24.26
16331;BME280;8275;48.206;16.340;2023-05-31T07:57:24;99698.00;;;28.05;24.72
16331;BME280;8275;48.206;16.340;2023-05-31T07:59:53;99700.31;;;28.15;24.50
16331;BME280;8275;48.206;16.340;2023-05-31T08:02:21;99677.94;;;28.22;24.52
16331;BME280;8275;48.206;16.340;2023-05-31T08:04:50;99688.41;;;28.22;23.95
16331;BME280;8275;48.206;16.340;2023-05-31T08:07:18;99687.38;;;28.14;23.96
16331;BME280;8275;48.206;16.340;2023-05-31T08:09:47;99685.69;;;27.98;24.30
16331;BME280;8275;48.206;16.340;2023-05-31T08:12:17;99683.78;;;27.86;23.98
16331;BME280;8275;48.206;16.340;2023-05-31T08:14:50;99689.69;;;27.81;24.46
16331;BME280;8275;48.206;16.340;2023-05-31T08:17:19;99680.50;;;27.84;24.17
16331;BME280;8275;48.206;16.340;2023-05-31T08:19:48;99680.25;;;27.89;24.59
16331;BME280;8275;48.206;16.340;2023-05-31T08:22:17;99674.72;;;27.93;24.78
16331;BME280;8275;48.206;16.340;2023-05-31T08:24:46;99685.25;;;27.96;24.67
16331;BME280;8275;48.206;16.340;2023-05-31T08:27:14;99682.19;;;28.01;24.28
16331;BME280;8275;48.206;16.340;2023-05-31T08:29:45;99679.84;;;28.03;24.75
16331;BME280;8275;48.206;16.340;2023-05-31T08:32:14;99685.59;;;28.06;24.75
16331;BME280;8275;48.206;16.340;2023-05-31T08:34:42;99677.59;;;28.08;24.34
16331;BME280;8275;48.206;16.340;2023-05-31T08:37:13;99673.22;;;28.11;24.78
16331;BME280;8275;48.206;16.340;2023-05-31T08:39:41;99680.59;;;28.15;24.51
16331;BME280;8275;48.206;16.340;2023-05-31T08:42:15;99675.84;;;28.19;24.55
16331;BME280;8275;48.206;16.340;2023-05-31T08:44:48;99675.47;;;28.21;24.33
16331;BME280;8275;48.206;16.340;2023-05-31T08:47:23;99682.75;;;28.22;24.70
16331;BME280;8275;48.206;16.340;2023-05-31T08:49:53;99683.59;;;28.22;24.33
16331;BME280;8275;48.206;16.340;2023-05-31T08:52:23;99681.56;;;28.23;24.36
16331;BME280;8275;48.206;16.340;2023-05-31T08:54:52;99684.31;;;28.19;24.33
16331;BME280;8275;48.206;16.340;2023-05-31T08:57:21;99690.75;;;28.20;24.67
16331;BME280;8275;48.206;16.340;2023-05-31T08:59:52;99685.22;;;28.23;24.69
16331;BME280;8275;48.206;16.340;2023-05-31T09:02:22;99684.94;;;28.28;24.51
16331;BME280;8275;48.206;16.340;2023-05-31T09:04:51;99689.84;;;28.31;24.28
16331;BME280;8275;48.206;16.340;2023-05-31T09:07:20;99689.94;;;28.35;24.14
16331;BME280;8275;48.206;16.340;2023-05-31T09:09:49;99688.75;;;28.36;24.42
16331;BME280;8275;48.206;16.340;2023-05-31T09:12:17;99681.22;;;28.40;24.30
16331;BME280;8275;48.206;16.340;2023-05-31T09:14:46;99680.94;;;28.45;24.52
16331;BME280;8275;48.206;16.340;2023-05-31T09:17:16;99679.41;;;28.47;24.38
16331;BME280;8275;48.206;16.340;2023-05-31T09:19:50;99679.41;;;28.47;24.58
16331;BME280;8275;48.206;16.340;2023-05-31T09:22:20;99679.84;;;28.49;24.56
16331;BME280;8275;48.206;16.340;2023-05-31T09:24:50;99669.84;;;28.52;24.61
16331;BME280;8275;48.206;16.340;2023-05-31T09:27:19;99672.28;;;28.53;24.40
16331;BME280;8275;48.206;16.340;2023-05-31T09:29:51;99665.38;;;28.51;24.06
16331;BME280;8275;48.206;16.340;2023-05-31T09:32:22;99665.91;;;28.57;24.42
16331;BME280;8275;48.206;16.340;2023-05-31T09:34:51;99670.50;;;28.61;24.34
16331;BME280;8275;48.206;16.340;2023-05-31T09:37:23;99657.66;;;28.64;24.30
16331;BME280;8275;48.206;16.340;2023-05-31T09:39:55;99659.44;;;28.72;24.62
16331;BME280;8275;48.206;16.340;2023-05-31T09:42:25;99656.06;;;28.82;24.50
16331;BME280;8275;48.206;16.340;2023-05-31T09:44:56;99662.59;;;28.86;24.27
16331;BME280;8275;48.206;16.340;2023-05-31T09:47:28;99656.25;;;28.89;24.05
16331;BME280;8275;48.206;16.340;2023-05-31T09:49:56;99647.84;;;28.92;23.93
16331;BME280;8275;48.206;16.340;2023-05-31T09:52:28;99647.56;;;28.97;24.32
16331;BME280;8275;48.206;16.340;2023-05-31T09:55:04;99648.44;;;29.01;23.93
16331;BME280;8275;48.206;16.340;2023-05-31T09:57:34;99649.41;;;29.09;23.99
16331;BME280;8275;48.206;16.340;2023-05-31T10:00:09;99647.41;;;29.09;23.95
16331;BME280;8275;48.206;16.340;2023-05-31T10:02:44;99638.97;;;29.09;24.06
16331;BME280;8275;48.206;16.340;2023-05-31T10:05:15;99642.22;;;29.11;23.83
16331;BME280;8275;48.206;16.340;2023-05-31T10:07:47;99635.31;;;29.09;23.76
16331;BME280;8275;48.206;16.340;2023-05-31T10:10:17;99641.09;;;29.16;24.17
16331;BME280;8275;48.206;16.340;2023-05-31T10:12:50;99638.84;;;29.22;24.11
16331;BME280;8275;48.206;16.340;2023-05-31T10:15:22;99637.66;;;29.23;23.99
16331;BME280;8275;48.206;16.340;2023-05-31T10:18:02;99626.81;;;29.25;23.90
16331;BME280;8275;48.206;16.340;2023-05-31T10:20:38;99624.06;;;29.28;23.96
16331;BME280;8275;48.206;16.340;2023-05-31T10:23:12;99627.34;;;29.30;24.11
16331;BME280;8275;48.206;16.340;2023-05-31T10:25:50;99627.47;;;29.37;24.21
16331;BME280;8275;48.206;16.340;2023-05-31T10:28:23;99625.16;;;29.43;24.22
16331;BME280;8275;48.206;16.340;2023-05-31T10:30:54;99621.97;;;29.44;24.30
16331;BME280;8275;48.206;16.340;2023-05-31T10:33:27;99620.41;;;29.47;24.15
16331;BME280;8275;48.206;16.340;2023-05-31T10:35:59;99614.38;;;29.48;23.77
16331;BME280;8275;48.206;16.340;2023-05-31T10:38:35;99628.06;;;29.46;23.87
16331;BME280;8275;48.206;16.340;2023-05-31T10:41:10;99615.22;;;29.49;23.86
16331;BME280;8275;48.206;16.340;2023-05-31T10:43:56;99624.09;;;29.70;24.03
16331;BME280;8275;48.206;16.340;2023-05-31T10:46:27;99613.41;;;30.02;23.93
16331;BME280;8275;48.206;16.340;2023-05-31T10:48:59;99612.09;;;30.44;23.62
16331;BME280;8275;48.206;16.340;2023-05-31T10:51:41;99608.81;;;30.95;23.40
16331;BME280;8275;48.206;16.340;2023-05-31T10:54:18;99607.09;;;31.50;22.83
16331;BME280;8275;48.206;16.340;2023-05-31T10:56:55;99600.84;;;32.07;22.63
16331;BME280;8275;48.206;16.340;2023-05-31T10:59:24;99597.63;;;32.63;21.86
16331;BME280;8275;48.206;16.340;2023-05-31T11:01:54;99586.22;;;33.24;21.14
16331;BME280;8275;48.206;16.340;2023-05-31T11:04:25;99587.19;;;33.78;20.74
16331;BME280;8275;48.206;16.340;2023-05-31T11:06:54;99575.44;;;34.22;20.25
16331;BME280;8275;48.206;16.340;2023-05-31T11:09:23;99583.16;;;34.56;20.16
16331;BME280;8275;48.206;16.340;2023-05-31T11:11:52;99581.03;;;34.96;19.44
16331;BME280;8275;48.206;16.340;2023-05-31T11:14:27;99575.22;;;35.27;19.32
16331;BME280;8275;48.206;16.340;2023-05-31T11:17:16;99571.53;;;35.34;19.20
16331;BME280;8275;48.206;16.340;2023-05-31T11:19:52;99568.53;;;35.62;19.03
16331;BME280;8275;48.206;16.340;2023-05-31T11:22:27;99566.56;;;36.11;19.13
16331;BME280;8275;48.206;16.340;2023-05-31T11:24:56;99564.41;;;36.66;18.21
16331;BME280;8275;48.206;16.340;2023-05-31T11:27:35;99566.56;;;37.26;18.07
16331;BME280;8275;48.206;16.340;2023-05-31T11:30:07;99562.41;;;37.91;17.36
16331;BME280;8275;48.206;16.340;2023-05-31T11:32:56;99555.03;;;38.63;16.96
16331;BME280;8275;48.206;16.340;2023-05-31T11:35:31;99561.22;;;39.40;16.79
16331;BME280;8275;48.206;16.340;2023-05-31T11:38:05;99561.69;;;39.90;15.98
16331;BME280;8275;48.206;16.340;2023-05-31T11:40:34;99564.06;;;40.12;15.28
16331;BME280;8275;48.206;16.340;2023-05-31T11:43:07;99555.44;;;39.95;15.37
16331;BME280;8275;48.206;16.340;2023-05-31T11:45:46;99557.22;;;39.73;14.83
16331;BME280;8275;48.206;16.340;2023-05-31T11:48:38;99553.63;;;39.69;14.89
16331;BME280;8275;48.206;16.340;2023-05-31T11:51:10;99549.06;;;39.88;14.22
16331;BME280;8275;48.206;16.340;2023-05-31T11:53:39;99555.94;;;40.10;14.72
16331;BME280;8275;48.206;16.340;2023-05-31T11:56:07;99553.88;;;40.43;14.10
16331;BME280;8275;48.206;16.340;2023-05-31T11:58:45;99546.56;;;40.83;13.84
16331;BME280;8275;48.206;16.340;2023-05-31T12:01:14;99553.59;;;41.11;13.86
16331;BME280;8275;48.206;16.340;2023-05-31T12:03:43;99545.38;;;41.38;13.70
16331;BME280;8275;48.206;16.340;2023-05-31T12:06:13;99544.13;;;41.52;13.42
16331;BME280;8275;48.206;16.340;2023-05-31T12:08:41;99530.91;;;41.67;13.22
16331;BME280;8275;48.206;16.340;2023-05-31T12:11:10;99533.00;;;41.91;13.05
16331;BME280;8275;48.206;16.340;2023-05-31T12:13:39;99533.66;;;42.33;13.03
16331;BME280;8275;48.206;16.340;2023-05-31T12:16:07;99523.19;;;42.83;12.83
16331;BME280;8275;48.206;16.340;2023-05-31T12:18:36;99520.75;;;43.37;11.86
16331;BME280;8275;48.206;16.340;2023-05-31T12:21:07;99519.22;;;43.85;11.82
16331;BME280;8275;48.206;16.340;2023-05-31T12:23:56;99517.91;;;44.26;11.34
16331;BME280;8275;48.206;16.340;2023-05-31T12:26:25;99527.41;;;44.72;11.44
16331;BME280;8275;48.206;16.340;2023-05-31T12:28:55;99528.22;;;45.17;11.24
16331;BME280;8275;48.206;16.340;2023-05-31T12:31:25;99529.31;;;45.38;10.78
16331;BME280;8275;48.206;16.340;2023-05-31T12:33:59;99520.84;;;45.07;10.09
16331;BME280;8275;48.206;16.340;2023-05-31T12:36:28;99524.16;;;44.33;10.36
16331;BME280;8275;48.206;16.340;2023-05-31T12:38:58;99516.72;;;43.35;10.92
16331;BME280;8275;48.206;16.340;2023-05-31T12:41:27;99523.22;;;42.61;11.13
16331;BME280;8275;48.206;16.340;2023-05-31T12:43:58;99522.69;;;42.41;11.34
16331;BME280;8275;48.206;16.340;2023-05-31T12:46:27;99508.91;;;42.57;11.65
16331;BME280;8275;48.206;16.340;2023-05-31T12:48:55;99518.50;;;42.89;11.56
16331;BME280;8275;48.206;16.340;2023-05-31T12:51:25;99513.88;;;43.44;11.59
16331;BME280;8275;48.206;16.340;2023-05-31T12:53:53;99509.00;;;44.02;10.87
16331;BME280;8275;48.206;16.340;2023-05-31T12:56:23;99506.06;;;44.51;10.70
16331;BME280;8275;48.206;16.340;2023-05-31T12:58:54;99512.84;;;44.84;10.43
16331;BME280;8275;48.206;16.340;2023-05-31T13:01:23;99502.19;;;45.08;9.97
16331;BME280;8275;48.206;16.340;2023-05-31T13:03:51;99502.47;;;45.38;9.92
16331;BME280;8275;48.206;16.340;2023-05-31T13:06:20;99499.84;;;45.58;9.33
16331;BME280;8275;48.206;16.340;2023-05-31T13:08:48;99495.06;;;45.78;9.78
16331;BME280;8275;48.206;16.340;2023-05-31T13:11:17;99491.78;;;45.94;9.41
16331;BME280;8275;48.206;16.340;2023-05-31T13:13:47;99494.13;;;46.29;9.45
16331;BME280;8275;48.206;16.340;2023-05-31T13:16:15;99485.16;;;46.50;8.51